sensor_id;sensor_type;location;lat;lon;timestamp;temperature;humidity
21918;DHT22;11123;49.882;8.662;2022-11-04T00:00:28;11.60;99.90
21918;DHT22;11123;49.882;8.662;2022-11-04T00:02:56;11.60;99.90
21918;DHT22;11123;49.882;8.662;2022-11-04T00:05:24;11.60;99.90
21918;DHT22;11123;49.882;8.662;2022-11-04T00:07:53;11.60;99.90
21918;DHT22;11123;49.882;8.662;2022-11-04T00:10:40;11.60;99.90
21918;DHT22;11123;49.882;8.662;2022-11-04T00:13:27;11.60;99.90
21918;DHT22;11123;49.882;8.662;2022-11-04T00:16:00;11.70;99.90
21918;DHT22;11123;49.882;8.662;2022-11-04T00:18:45;11.70;99.90
21918;DHT22;11123;49.882;8.662;2022-11-04T00:21:14;11.70;99.90
21918;DHT22;11123;49.882;8.662;2022-11-04T00:24:09;11.70;99.90
21918;DHT22;11123;49.882;8.662;2022-11-04T00:26:57;11.70;99.90
21918;DHT22;11123;49.882;8.662;2022-11-04T00:29:42;11.70;99.90
21918;DHT22;11123;49.882;8.662;2022-11-04T00:32:11;11.70;99.90
21918;DHT22;11123;49.882;8.662;2022-11-04T00:34:57;11.70;99.90
21918;DHT22;11123;49.882;8.662;2022-11-04T00:37:25;11.60;99.90
21918;DHT22;11123;49.882;8.662;2022-11-04T00:39:54;11.60;99.90
21918;DHT22;11123;49.882;8.662;2022-11-04T00:42:24;11.60;99.90
21918;DHT22;11123;49.882;8.662;2022-11-04T00:44:52;11.60;99.90
21918;DHT22;11123;49.882;8.662;2022-11-04T00:47:20;11.60;99.90
21918;DHT22;11123;49.882;8.662;2022-11-04T00:49:48;11.70;99.90
21918;DHT22;11123;49.882;8.662;2022-11-04T00:52:17;11.60;99.90
21918;DHT22;11123;49.882;8.662;2022-11-04T00:54:45;11.60;99.90
21918;DHT22;11123;49.882;8.662;2022-11-04T00:57:14;11.60;99.90
21918;DHT22;11123;49.882;8.662;2022-11-04T00:59:44;11.60;99.90
21918;DHT22;11123;49.882;8.662;2022-11-04T01:02:12;11.60;99.90
21918;DHT22;11123;49.882;8.662;2022-11-04T01:04:41;11.60;99.90
21918;DHT22;11123;49.882;8.662;2022-11-04T01:07:09;11.60;99.90
21918;DHT22;11123;49.882;8.662;2022-11-04T01:09:37;11.60;99.90
21918;DHT22;11123;49.882;8.662;2022-11-04T01:12:05;11.60;99.90
21918;DHT22;11123;49.882;8.662;2022-11-04T01:14:34;11.50;99.90
21918;DHT22;11123;49.882;8.662;2022-11-04T01:17:03;11.50;99.90
21918;DHT22;11123;49.882;8.662;2022-11-04T01:19:31;11.50;99.90
21918;DHT22;11123;49.882;8.662;2022-11-04T01:22:00;11.40;99.90
21918;DHT22;11123;49.882;8.662;2022-11-04T01:24:28;11.50;99.90
21918;DHT22;11123;49.882;8.662;2022-11-04T01:26:56;11.50;99.90
21918;DHT22;11123;49.882;8.662;2022-11-04T01:29:24;11.50;99.90
21918;DHT22;11123;49.882;8.662;2022-11-04T01:31:53;11.60;99.90
21918;DHT22;11123;49.882;8.662;2022-11-04T01:34:22;11.60;99.90
21918;DHT22;11123;49.882;8.662;2022-11-04T01:36:51;11.60;99.90
21918;DHT22;11123;49.882;8.662;2022-11-04T01:39:19;11.60;99.90
21918;DHT22;11123;49.882;8.662;2022-11-04T01:41:47;11.50;99.90
21918;DHT22;11123;49.882;8.662;2022-11-04T01:44:45;11.50;99.90
21918;DHT22;11123;49.882;8.662;2022-11-04T01:47:16;11.60;99.90
21918;DHT22;11123;49.882;8.662;2022-11-04T01:49:50;11.50;99.90
21918;DHT22;11123;49.882;8.662;2022-11-04T01:52:25;11.50;99.90
21918;DHT22;11123;49.882;8.662;2022-11-04T01:54:58;11.50;99.90
21918;DHT22;11123;49.882;8.662;2022-11-04T01:57:32;11.50;99.90
21918;DHT22;11123;49.882;8.662;2022-11-04T02:00:04;11.50;99.90
21918;DHT22;11123;49.882;8.662;2022-11-04T02:02:45;11.60;99.90
21918;DHT22;11123;49.882;8.662;2022-11-04T02:05:18;11.60;99.90
21918;DHT22;11123;49.882;8.662;2022-11-04T02:07:49;11.60;99.90
21918;DHT22;11123;49.882;8.662;2022-11-04T02:10:24;11.50;99.90
21918;DHT22;11123;49.882;8.662;2022-11-04T02:12:53;11.50;99.90
21918;DHT22;11123;49.882;8.662;2022-11-04T02:15:29;11.50;99.90
21918;DHT22;11123;49.882;8.662;2022-11-04T02:18:12;11.50;99.90
21918;DHT22;11123;49.882;8.662;2022-11-04T02:21:07;11.50;99.90
21918;DHT22;11123;49.882;8.662;2022-11-04T02:24:26;11.60;99.90
21918;DHT22;11123;49.882;8.662;2022-11-04T02:27:11;11.50;99.90
21918;DHT22;11123;49.882;8.662;2022-11-04T02:29:48;11.40;99.90
21918;DHT22;11123;49.882;8.662;2022-11-04T02:32:28;11.40;99.90
21918;DHT22;11123;49.882;8.662;2022-11-04T02:35:04;11.40;99.90
21918;DHT22;11123;49.882;8.662;2022-11-04T02:37:39;11.30;99.90
21918;DHT22;11123;49.882;8.662;2022-11-04T02:40:20;11.20;99.90
21918;DHT22;11123;49.882;8.662;2022-11-04T02:42:55;11.10;99.90
21918;DHT22;11123;49.882;8.662;2022-11-04T02:45:32;11.10;99.90
21918;DHT22;11123;49.882;8.662;2022-11-04T02:48:08;11.10;99.90
21918;DHT22;11123;49.882;8.662;2022-11-04T02:50:43;11.10;99.90
21918;DHT22;11123;49.882;8.662;2022-11-04T02:53:15;11.10;99.90
21918;DHT22;11123;49.882;8.662;2022-11-04T02:55:47;11.10;99.90
21918;DHT22;11123;49.882;8.662;2022-11-04T02:58:20;11.10;99.90
21918;DHT22;11123;49.882;8.662;2022-11-04T03:00:52;11.10;99.90
21918;DHT22;11123;49.882;8.662;2022-11-04T03:03:26;11.10;99.90
21918;DHT22;11123;49.882;8.662;2022-11-04T03:05:56;11.10;99.90
21918;DHT22;11123;49.882;8.662;2022-11-04T03:08:28;11.00;99.90
21918;DHT22;11123;49.882;8.662;2022-11-04T03:11:01;10.90;99.90
21918;DHT22;11123;49.882;8.662;2022-11-04T03:13:35;10.80;99.90
21918;DHT22;11123;49.882;8.662;2022-11-04T03:16:08;10.80;99.90
21918;DHT22;11123;49.882;8.662;2022-11-04T03:18:42;10.70;99.90
21918;DHT22;11123;49.882;8.662;2022-11-04T03:21:14;10.70;99.90
21918;DHT22;11123;49.882;8.662;2022-11-04T03:23:43;10.70;99.90
21918;DHT22;11123;49.882;8.662;2022-11-04T03:26:22;10.70;99.90
21918;DHT22;11123;49.882;8.662;2022-11-04T03:28:58;10.70;99.90
21918;DHT22;11123;49.882;8.662;2022-11-04T03:31:39;10.70;99.90
21918;DHT22;11123;49.882;8.662;2022-11-04T03:34:10;10.60;99.90
21918;DHT22;11123;49.882;8.662;2022-11-04T03:36:39;10.60;99.90
21918;DHT22;11123;49.882;8.662;2022-11-04T03:39:07;10.60;99.90
21918;DHT22;11123;49.882;8.662;2022-11-04T03:41:40;10.70;99.90
21918;DHT22;11123;49.882;8.662;2022-11-04T03:44:10;10.70;99.90
21918;DHT22;11123;49.882;8.662;2022-11-04T03:46:40;10.70;99.90
21918;DHT22;11123;49.882;8.662;2022-11-04T03:49:08;10.80;99.90
21918;DHT22;11123;49.882;8.662;2022-11-04T03:51:38;10.90;99.90
21918;DHT22;11123;49.882;8.662;2022-11-04T03:54:06;10.90;99.90
21918;DHT22;11123;49.882;8.662;2022-11-04T03:56:55;10.80;99.90
21918;DHT22;11123;49.882;8.662;2022-11-04T03:59:46;10.80;99.90
21918;DHT22;11123;49.882;8.662;2022-11-04T04:02:24;10.70;99.90
21918;DHT22;11123;49.882;8.662;2022-11-04T04:04:57;10.60;99.90
21918;DHT22;11123;49.882;8.662;2022-11-04T04:07:31;10.60;99.90
21918;DHT22;11123;49.882;8.662;2022-11-04T04:10:05;10.50;99.90
21918;DHT22;11123;49.882;8.662;2022-11-04T04:12:58;10.50;99.90
21918;DHT22;11123;49.882;8.662;2022-11-04T04:15:32;10.60;99.90
21918;DHT22;11123;49.882;8.662;2022-11-04T04:18:06;10.50;99.90
21918;DHT22;11123;49.882;8.662;2022-11-04T04:20:38;10.50;99.90
21918;DHT22;11123;49.882;8.662;2022-11-04T04:23:09;10.50;99.90
21918;DHT22;11123;49.882;8.662;2022-11-04T04:25:56;10.50;99.90
21918;DHT22;11123;49.882;8.662;2022-11-04T04:28:45;10.60;99.90
21918;DHT22;11123;49.882;8.662;2022-11-04T04:31:15;10.60;99.90
21918;DHT22;11123;49.882;8.662;2022-11-04T04:34:06;10.50;99.90
21918;DHT22;11123;49.882;8.662;2022-11-04T04:36:41;10.40;99.90
21918;DHT22;11123;49.882;8.662;2022-11-04T04:39:11;10.40;99.90
21918;DHT22;11123;49.882;8.662;2022-11-04T04:41:59;10.40;99.90
21918;DHT22;11123;49.882;8.662;2022-11-04T04:44:45;10.40;99.90
21918;DHT22;11123;49.882;8.662;2022-11-04T04:47:44;10.40;99.90
21918;DHT22;11123;49.882;8.662;2022-11-04T04:50:16;10.30;99.90
21918;DHT22;11123;49.882;8.662;2022-11-04T04:52:47;10.30;99.90
21918;DHT22;11123;49.882;8.662;2022-11-04T04:55:16;10.30;99.90
21918;DHT22;11123;49.882;8.662;2022-11-04T04:57:44;10.30;99.90
21918;DHT22;11123;49.882;8.662;2022-11-04T05:00:14;10.30;99.90
21918;DHT22;11123;49.882;8.662;2022-11-04T05:02:43;10.30;99.90
21918;DHT22;11123;49.882;8.662;2022-11-04T05:05:13;10.20;99.90
21918;DHT22;11123;49.882;8.662;2022-11-04T05:07:47;10.20;99.90
21918;DHT22;11123;49.882;8.662;2022-11-04T05:10:16;10.20;99.90
21918;DHT22;11123;49.882;8.662;2022-11-04T05:12:45;10.20;99.90
21918;DHT22;11123;49.882;8.662;2022-11-04T05:15:30;10.20;99.90
21918;DHT22;11123;49.882;8.662;2022-11-04T05:18:00;10.10;99.90
21918;DHT22;11123;49.882;8.662;2022-11-04T05:20:30;10.00;99.90
21918;DHT22;11123;49.882;8.662;2022-11-04T05:23:00;10.10;99.90
21918;DHT22;11123;49.882;8.662;2022-11-04T05:25:28;10.10;99.90
21918;DHT22;11123;49.882;8.662;2022-11-04T05:27:59;10.10;99.90
21918;DHT22;11123;49.882;8.662;2022-11-04T05:30:27;10.10;99.90
21918;DHT22;11123;49.882;8.662;2022-11-04T05:32:56;10.10;99.90
21918;DHT22;11123;49.882;8.662;2022-11-04T05:35:32;10.10;99.90
21918;DHT22;11123;49.882;8.662;2022-11-04T05:38:00;10.10;99.90
21918;DHT22;11123;49.882;8.662;2022-11-04T05:40:29;10.10;99.90
21918;DHT22;11123;49.882;8.662;2022-11-04T05:42:57;10.10;99.90
21918;DHT22;11123;49.882;8.662;2022-11-04T05:45:27;10.00;99.90
21918;DHT22;11123;49.882;8.662;2022-11-04T05:47:57;10.00;99.90
21918;DHT22;11123;49.882;8.662;2022-11-04T05:50:27;10.00;99.90
21918;DHT22;11123;49.882;8.662;2022-11-04T05:52:57;10.00;99.90
21918;DHT22;11123;49.882;8.662;2022-11-04T05:55:25;10.00;99.90
21918;DHT22;11123;49.882;8.662;2022-11-04T05:57:54;10.00;99.90
21918;DHT22;11123;49.882;8.662;2022-11-04T06:00:24;9.90;99.90
21918;DHT22;11123;49.882;8.662;2022-11-04T06:02:53;10.00;99.90
21918;DHT22;11123;49.882;8.662;2022-11-04T06:05:23;10.00;99.90
21918;DHT22;11123;49.882;8.662;2022-11-04T06:07:51;10.00;99.90
21918;DHT22;11123;49.882;8.662;2022-11-04T06:10:21;10.10;99.90
21918;DHT22;11123;49.882;8.662;2022-11-04T06:12:49;10.20;99.90
21918;DHT22;11123;49.882;8.662;2022-11-04T06:15:18;10.20;99.90
21918;DHT22;11123;49.882;8.662;2022-11-04T06:17:46;10.20;99.90
21918;DHT22;11123;49.882;8.662;2022-11-04T06:20:14;10.20;99.90
21918;DHT22;11123;49.882;8.662;2022-11-04T06:22:42;10.20;99.90
21918;DHT22;11123;49.882;8.662;2022-11-04T06:25:11;10.20;99.90
21918;DHT22;11123;49.882;8.662;2022-11-04T06:27:41;10.30;99.90
21918;DHT22;11123;49.882;8.662;2022-11-04T06:30:10;10.30;99.90
21918;DHT22;11123;49.882;8.662;2022-11-04T06:32:38;10.40;99.90
21918;DHT22;11123;49.882;8.662;2022-11-04T06:35:07;10.30;99.90
21918;DHT22;11123;49.882;8.662;2022-11-04T06:37:35;10.40;99.90
21918;DHT22;11123;49.882;8.662;2022-11-04T06:40:06;10.40;99.90
21918;DHT22;11123;49.882;8.662;2022-11-04T06:42:35;10.40;99.90
21918;DHT22;11123;49.882;8.662;2022-11-04T06:45:05;10.40;99.90
21918;DHT22;11123;49.882;8.662;2022-11-04T06:47:33;10.40;99.90
21918;DHT22;11123;49.882;8.662;2022-11-04T06:50:02;10.40;99.90
21918;DHT22;11123;49.882;8.662;2022-11-04T06:52:30;10.50;99.90
21918;DHT22;11123;49.882;8.662;2022-11-04T06:55:05;10.50;99.90
21918;DHT22;11123;49.882;8.662;2022-11-04T06:57:34;10.50;99.90
21918;DHT22;11123;49.882;8.662;2022-11-04T07:00:05;10.60;99.90
21918;DHT22;11123;49.882;8.662;2022-11-04T07:02:33;10.70;99.90
21918;DHT22;11123;49.882;8.662;2022-11-04T07:05:02;10.70;99.90
21918;DHT22;11123;49.882;8.662;2022-11-04T07:07:31;10.60;99.90
21918;DHT22;11123;49.882;8.662;2022-11-04T07:10:00;10.70;99.90
21918;DHT22;11123;49.882;8.662;2022-11-04T07:12:28;10.70;99.90
21918;DHT22;11123;49.882;8.662;2022-11-04T07:14:56;10.70;99.90
21918;DHT22;11123;49.882;8.662;2022-11-04T07:17:26;10.80;99.90
21918;DHT22;11123;49.882;8.662;2022-11-04T07:19:54;10.80;99.90
21918;DHT22;11123;49.882;8.662;2022-11-04T07:22:22;10.90;99.90
21918;DHT22;11123;49.882;8.662;2022-11-04T07:24:51;10.90;99.90
21918;DHT22;11123;49.882;8.662;2022-11-04T07:27:19;10.90;99.90
21918;DHT22;11123;49.882;8.662;2022-11-04T07:29:48;10.90;99.90
21918;DHT22;11123;49.882;8.662;2022-11-04T07:32:16;10.90;99.90
21918;DHT22;11123;49.882;8.662;2022-11-04T07:34:46;10.90;99.90
21918;DHT22;11123;49.882;8.662;2022-11-04T07:37:14;10.90;99.90
21918;DHT22;11123;49.882;8.662;2022-11-04T07:39:42;10.90;99.90
21918;DHT22;11123;49.882;8.662;2022-11-04T07:42:10;11.00;99.90
21918;DHT22;11123;49.882;8.662;2022-11-04T07:44:39;11.00;99.90
21918;DHT22;11123;49.882;8.662;2022-11-04T07:47:07;11.00;99.90
21918;DHT22;11123;49.882;8.662;2022-11-04T07:49:35;11.10;99.90
21918;DHT22;11123;49.882;8.662;2022-11-04T07:52:05;11.00;99.90
21918;DHT22;11123;49.882;8.662;2022-11-04T07:54:33;11.10;99.90
21918;DHT22;11123;49.882;8.662;2022-11-04T07:57:01;11.10;99.90
21918;DHT22;11123;49.882;8.662;2022-11-04T07:59:30;11.00;99.90
21918;DHT22;11123;49.882;8.662;2022-11-04T08:02:00;11.10;99.90
21918;DHT22;11123;49.882;8.662;2022-11-04T08:04:28;11.10;99.90
21918;DHT22;11123;49.882;8.662;2022-11-04T08:06:56;11.10;99.90
21918;DHT22;11123;49.882;8.662;2022-11-04T08:09:26;11.10;99.90
21918;DHT22;11123;49.882;8.662;2022-11-04T08:11:54;11.10;99.90
21918;DHT22;11123;49.882;8.662;2022-11-04T08:14:22;11.10;99.90
21918;DHT22;11123;49.882;8.662;2022-11-04T08:16:51;11.10;99.90
21918;DHT22;11123;49.882;8.662;2022-11-04T08:19:19;11.20;99.90
21918;DHT22;11123;49.882;8.662;2022-11-04T08:21:47;11.10;99.90
21918;DHT22;11123;49.882;8.662;2022-11-04T08:24:16;11.00;99.90
21918;DHT22;11123;49.882;8.662;2022-11-04T08:26:45;11.10;99.90
21918;DHT22;11123;49.882;8.662;2022-11-04T08:29:14;11.10;99.90
21918;DHT22;11123;49.882;8.662;2022-11-04T08:31:42;11.20;99.90
21918;DHT22;11123;49.882;8.662;2022-11-04T08:34:11;11.30;99.90
21918;DHT22;11123;49.882;8.662;2022-11-04T08:36:40;11.30;99.90
21918;DHT22;11123;49.882;8.662;2022-11-04T08:39:10;11.20;99.90
21918;DHT22;11123;49.882;8.662;2022-11-04T08:41:40;11.20;99.90
21918;DHT22;11123;49.882;8.662;2022-11-04T08:44:12;11.40;99.90
21918;DHT22;11123;49.882;8.662;2022-11-04T08:46:42;11.40;99.90
21918;DHT22;11123;49.882;8.662;2022-11-04T08:49:11;11.40;99.90
21918;DHT22;11123;49.882;8.662;2022-11-04T08:51:46;11.50;99.90
21918;DHT22;11123;49.882;8.662;2022-11-04T08:54:22;11.60;99.90
21918;DHT22;11123;49.882;8.662;2022-11-04T08:56:51;11.50;99.90
21918;DHT22;11123;49.882;8.662;2022-11-04T08:59:21;11.60;99.90
21918;DHT22;11123;49.882;8.662;2022-11-04T09:01:50;11.70;99.90
21918;DHT22;11123;49.882;8.662;2022-11-04T09:04:19;11.80;99.90
21918;DHT22;11123;49.882;8.662;2022-11-04T09:06:47;11.80;99.90
21918;DHT22;11123;49.882;8.662;2022-11-04T09:09:17;11.90;99.90
21918;DHT22;11123;49.882;8.662;2022-11-04T09:11:46;11.90;99.90
21918;DHT22;11123;49.882;8.662;2022-11-04T09:14:14;11.80;99.90
21918;DHT22;11123;49.882;8.662;2022-11-04T09:16:45;11.80;99.90
21918;DHT22;11123;49.882;8.662;2022-11-04T09:19:13;11.80;99.90
21918;DHT22;11123;49.882;8.662;2022-11-04T09:21:41;11.80;99.90
21918;DHT22;11123;49.882;8.662;2022-11-04T09:24:09;11.90;99.90
21918;DHT22;11123;49.882;8.662;2022-11-04T09:26:38;11.90;99.90
21918;DHT22;11123;49.882;8.662;2022-11-04T09:29:07;12.00;99.90
21918;DHT22;11123;49.882;8.662;2022-11-04T09:31:36;12.00;99.90
21918;DHT22;11123;49.882;8.662;2022-11-04T09:34:06;12.10;99.90
21918;DHT22;11123;49.882;8.662;2022-11-04T09:36:34;12.20;99.90
21918;DHT22;11123;49.882;8.662;2022-11-04T09:39:03;12.30;99.90
21918;DHT22;11123;49.882;8.662;2022-11-04T09:41:56;12.10;99.90
21918;DHT22;11123;49.882;8.662;2022-11-04T09:44:30;12.10;99.90
21918;DHT22;11123;49.882;8.662;2022-11-04T09:47:21;12.20;99.90
21918;DHT22;11123;49.882;8.662;2022-11-04T09:49:53;12.40;99.90
21918;DHT22;11123;49.882;8.662;2022-11-04T09:52:25;12.60;99.90
21918;DHT22;11123;49.882;8.662;2022-11-04T09:54:59;12.80;99.90
21918;DHT22;11123;49.882;8.662;2022-11-04T09:57:29;12.90;99.90
21918;DHT22;11123;49.882;8.662;2022-11-04T09:59:59;13.00;94.10
21918;DHT22;11123;49.882;8.662;2022-11-04T10:02:44;13.20;80.40
21918;DHT22;11123;49.882;8.662;2022-11-04T10:05:38;13.30;90.10
21918;DHT22;11123;49.882;8.662;2022-11-04T10:08:28;13.50;81.50
21918;DHT22;11123;49.882;8.662;2022-11-04T10:11:09;13.60;33.10
21918;DHT22;11123;49.882;8.662;2022-11-04T10:13:59;13.50;38.30
21918;DHT22;11123;49.882;8.662;2022-11-04T10:16:45;13.60;42.50
21918;DHT22;11123;49.882;8.662;2022-11-04T10:19:37;13.80;28.30
21918;DHT22;11123;49.882;8.662;2022-11-04T10:22:16;13.70;28.80
21918;DHT22;11123;49.882;8.662;2022-11-04T10:24:53;13.30;59.70
21918;DHT22;11123;49.882;8.662;2022-11-04T10:27:30;13.50;38.90
21918;DHT22;11123;49.882;8.662;2022-11-04T10:30:06;13.70;31.80
21918;DHT22;11123;49.882;8.662;2022-11-04T10:32:41;13.80;22.70
21918;DHT22;11123;49.882;8.662;2022-11-04T10:35:20;13.80;13.50
21918;DHT22;11123;49.882;8.662;2022-11-04T10:37:52;13.60;26.80
21918;DHT22;11123;49.882;8.662;2022-11-04T10:40:23;13.80;8.80
21918;DHT22;11123;49.882;8.662;2022-11-04T10:42:53;13.90;9.00
21918;DHT22;11123;49.882;8.662;2022-11-04T10:45:28;13.80;10.30
21918;DHT22;11123;49.882;8.662;2022-11-04T10:48:01;13.30;17.40
21918;DHT22;11123;49.882;8.662;2022-11-04T10:50:33;12.90;34.70
21918;DHT22;11123;49.882;8.662;2022-11-04T10:53:15;13.00;30.30
21918;DHT22;11123;49.882;8.662;2022-11-04T10:55:50;13.00;27.50
21918;DHT22;11123;49.882;8.662;2022-11-04T10:58:23;13.00;26.40
21918;DHT22;11123;49.882;8.662;2022-11-04T11:00:52;12.90;28.10
21918;DHT22;11123;49.882;8.662;2022-11-04T11:03:27;13.00;32.50
21918;DHT22;11123;49.882;8.662;2022-11-04T11:06:13;13.10;34.00
21918;DHT22;11123;49.882;8.662;2022-11-04T11:08:44;13.10;41.60
21918;DHT22;11123;49.882;8.662;2022-11-04T11:11:14;13.30;29.60
21918;DHT22;11123;49.882;8.662;2022-11-04T11:13:44;13.50;18.10
21918;DHT22;11123;49.882;8.662;2022-11-04T11:16:17;13.70;8.10
21918;DHT22;11123;49.882;8.662;2022-11-04T11:19:16;14.10;2.50
21918;DHT22;11123;49.882;8.662;2022-11-04T11:21:46;14.70;1.00
21918;DHT22;11123;49.882;8.662;2022-11-04T11:24:21;15.30;1.00
21918;DHT22;11123;49.882;8.662;2022-11-04T11:26:50;16.40;1.00
21918;DHT22;11123;49.882;8.662;2022-11-04T11:29:23;17.10;1.00
21918;DHT22;11123;49.882;8.662;2022-11-04T11:31:52;17.00;1.00
21918;DHT22;11123;49.882;8.662;2022-11-04T11:34:24;16.00;1.00
21918;DHT22;11123;49.882;8.662;2022-11-04T11:36:54;16.50;1.00
21918;DHT22;11123;49.882;8.662;2022-11-04T11:39:26;16.80;1.00
21918;DHT22;11123;49.882;8.662;2022-11-04T11:41:58;16.10;1.00
21918;DHT22;11123;49.882;8.662;2022-11-04T11:44:30;16.50;1.00
21918;DHT22;11123;49.882;8.662;2022-11-04T11:47:01;17.00;1.00
21918;DHT22;11123;49.882;8.662;2022-11-04T11:49:31;17.10;1.00
21918;DHT22;11123;49.882;8.662;2022-11-04T11:52:26;16.90;1.00
21918;DHT22;11123;49.882;8.662;2022-11-04T11:55:03;16.50;1.00
21918;DHT22;11123;49.882;8.662;2022-11-04T11:57:44;16.30;1.00
21918;DHT22;11123;49.882;8.662;2022-11-04T12:00:39;16.50;1.00
21918;DHT22;11123;49.882;8.662;2022-11-04T12:03:19;16.80;1.00
21918;DHT22;11123;49.882;8.662;2022-11-04T12:05:59;16.90;1.00
21918;DHT22;11123;49.882;8.662;2022-11-04T12:09:04;16.80;1.00
21918;DHT22;11123;49.882;8.662;2022-11-04T12:12:00;16.50;1.00
21918;DHT22;11123;49.882;8.662;2022-11-04T12:14:42;15.40;1.00
21918;DHT22;11123;49.882;8.662;2022-11-04T12:17:26;15.50;1.00
21918;DHT22;11123;49.882;8.662;2022-11-04T12:20:04;15.20;1.00
21918;DHT22;11123;49.882;8.662;2022-11-04T12:22:46;16.50;1.00
21918;DHT22;11123;49.882;8.662;2022-11-04T12:25:23;17.30;1.00
21918;DHT22;11123;49.882;8.662;2022-11-04T12:28:00;16.10;1.00
21918;DHT22;11123;49.882;8.662;2022-11-04T12:30:35;15.20;1.00
21918;DHT22;11123;49.882;8.662;2022-11-04T12:33:16;15.40;1.00
21918;DHT22;11123;49.882;8.662;2022-11-04T12:36:02;15.90;1.00
21918;DHT22;11123;49.882;8.662;2022-11-04T12:38:46;15.70;1.00
21918;DHT22;11123;49.882;8.662;2022-11-04T12:41:22;14.20;19.30
21918;DHT22;11123;49.882;8.662;2022-11-04T12:44:22;13.90;42.50
21918;DHT22;11123;49.882;8.662;2022-11-04T12:46:58;13.60;36.60
21918;DHT22;11123;49.882;8.662;2022-11-04T12:49:46;13.10;86.90
21918;DHT22;11123;49.882;8.662;2022-11-04T12:52:44;13.30;89.60
21918;DHT22;11123;49.882;8.662;2022-11-04T12:55:41;13.90;65.60
21918;DHT22;11123;49.882;8.662;2022-11-04T12:58:26;14.20;48.10
21918;DHT22;11123;49.882;8.662;2022-11-04T13:01:02;13.80;53.40
21918;DHT22;11123;49.882;8.662;2022-11-04T13:03:46;13.70;32.10
21918;DHT22;11123;49.882;8.662;2022-11-04T13:06:17;14.00;29.80
21918;DHT22;11123;49.882;8.662;2022-11-04T13:08:50;14.00;31.60
21918;DHT22;11123;49.882;8.662;2022-11-04T13:11:22;14.10;38.10
21918;DHT22;11123;49.882;8.662;2022-11-04T13:13:57;13.70;32.00
21918;DHT22;11123;49.882;8.662;2022-11-04T13:16:31;13.60;42.50
21918;DHT22;11123;49.882;8.662;2022-11-04T13:19:01;13.60;57.10
21918;DHT22;11123;49.882;8.662;2022-11-04T13:21:33;13.60;55.40
21918;DHT22;11123;49.882;8.662;2022-11-04T13:24:05;13.50;58.60
21918;DHT22;11123;49.882;8.662;2022-11-04T13:26:38;13.80;38.20
21918;DHT22;11123;49.882;8.662;2022-11-04T13:29:13;14.00;35.70
21918;DHT22;11123;49.882;8.662;2022-11-04T13:31:50;14.20;18.20
21918;DHT22;11123;49.882;8.662;2022-11-04T13:34:27;14.40;11.80
21918;DHT22;11123;49.882;8.662;2022-11-04T13:37:08;14.00;17.90
21918;DHT22;11123;49.882;8.662;2022-11-04T13:39:43;13.70;20.10
21918;DHT22;11123;49.882;8.662;2022-11-04T13:42:47;13.70;27.30
21918;DHT22;11123;49.882;8.662;2022-11-04T13:45:49;13.90;25.80
21918;DHT22;11123;49.882;8.662;2022-11-04T13:48:22;13.80;19.60
21918;DHT22;11123;49.882;8.662;2022-11-04T13:50:56;13.70;6.40
21918;DHT22;11123;49.882;8.662;2022-11-04T13:53:40;13.30;29.20
21918;DHT22;11123;49.882;8.662;2022-11-04T13:56:09;13.30;35.60
21918;DHT22;11123;49.882;8.662;2022-11-04T13:59:03;13.50;33.80
21918;DHT22;11123;49.882;8.662;2022-11-04T14:01:33;13.80;23.70
21918;DHT22;11123;49.882;8.662;2022-11-04T14:04:18;13.60;27.10
21918;DHT22;11123;49.882;8.662;2022-11-04T14:06:54;13.30;46.60
21918;DHT22;11123;49.882;8.662;2022-11-04T14:09:33;13.20;56.00
21918;DHT22;11123;49.882;8.662;2022-11-04T14:12:17;13.20;66.90
21918;DHT22;11123;49.882;8.662;2022-11-04T14:14:48;13.20;75.00
21918;DHT22;11123;49.882;8.662;2022-11-04T14:17:56;13.20;80.10
21918;DHT22;11123;49.882;8.662;2022-11-04T14:20:30;13.20;87.30
21918;DHT22;11123;49.882;8.662;2022-11-04T14:23:02;13.20;95.90
21918;DHT22;11123;49.882;8.662;2022-11-04T14:25:38;13.40;85.20
21918;DHT22;11123;49.882;8.662;2022-11-04T14:28:22;13.30;87.10
21918;DHT22;11123;49.882;8.662;2022-11-04T14:30:54;13.30;90.90
21918;DHT22;11123;49.882;8.662;2022-11-04T14:33:48;13.30;86.80
21918;DHT22;11123;49.882;8.662;2022-11-04T14:36:39;13.00;99.90
21918;DHT22;11123;49.882;8.662;2022-11-04T14:39:21;13.00;99.90
21918;DHT22;11123;49.882;8.662;2022-11-04T14:41:57;13.10;99.90
21918;DHT22;11123;49.882;8.662;2022-11-04T14:44:36;13.00;99.90
21918;DHT22;11123;49.882;8.662;2022-11-04T14:47:16;13.00;99.90
21918;DHT22;11123;49.882;8.662;2022-11-04T14:49:47;13.00;99.90
21918;DHT22;11123;49.882;8.662;2022-11-04T14:52:22;13.00;99.90
21918;DHT22;11123;49.882;8.662;2022-11-04T14:54:55;13.10;99.90
21918;DHT22;11123;49.882;8.662;2022-11-04T14:57:24;13.20;99.90
21918;DHT22;11123;49.882;8.662;2022-11-04T14:59:52;13.20;99.90
21918;DHT22;11123;49.882;8.662;2022-11-04T15:02:22;13.10;99.90
21918;DHT22;11123;49.882;8.662;2022-11-04T15:04:54;13.00;99.90
21918;DHT22;11123;49.882;8.662;2022-11-04T15:07:33;12.90;99.90
21918;DHT22;11123;49.882;8.662;2022-11-04T15:10:13;12.70;99.90
21918;DHT22;11123;49.882;8.662;2022-11-04T15:12:45;12.70;99.90
21918;DHT22;11123;49.882;8.662;2022-11-04T15:15:30;12.80;99.90
21918;DHT22;11123;49.882;8.662;2022-11-04T15:18:03;12.70;99.90
21918;DHT22;11123;49.882;8.662;2022-11-04T15:20:35;12.70;99.90
21918;DHT22;11123;49.882;8.662;2022-11-04T15:23:11;12.60;99.90
21918;DHT22;11123;49.882;8.662;2022-11-04T15:25:46;12.60;99.90
21918;DHT22;11123;49.882;8.662;2022-11-04T15:28:18;12.50;99.90
21918;DHT22;11123;49.882;8.662;2022-11-04T15:31:13;12.40;99.90
21918;DHT22;11123;49.882;8.662;2022-11-04T15:33:45;12.30;99.90
21918;DHT22;11123;49.882;8.662;2022-11-04T15:36:17;12.30;99.90
21918;DHT22;11123;49.882;8.662;2022-11-04T15:38:53;12.20;99.90
21918;DHT22;11123;49.882;8.662;2022-11-04T15:41:26;12.30;99.90
21918;DHT22;11123;49.882;8.662;2022-11-04T15:44:16;12.20;99.90
21918;DHT22;11123;49.882;8.662;2022-11-04T15:46:47;12.10;99.90
21918;DHT22;11123;49.882;8.662;2022-11-04T15:49:22;12.00;99.90
21918;DHT22;11123;49.882;8.662;2022-11-04T15:51:57;12.00;99.90
21918;DHT22;11123;49.882;8.662;2022-11-04T15:54:29;11.90;99.90
21918;DHT22;11123;49.882;8.662;2022-11-04T15:57:03;11.80;99.90
21918;DHT22;11123;49.882;8.662;2022-11-04T15:59:34;11.80;99.90
21918;DHT22;11123;49.882;8.662;2022-11-04T16:02:05;11.70;99.90
21918;DHT22;11123;49.882;8.662;2022-11-04T16:04:43;11.70;99.90
21918;DHT22;11123;49.882;8.662;2022-11-04T16:07:24;11.60;99.90
21918;DHT22;11123;49.882;8.662;2022-11-04T16:09:58;11.50;99.90
21918;DHT22;11123;49.882;8.662;2022-11-04T16:12:35;11.50;99.90
21918;DHT22;11123;49.882;8.662;2022-11-04T16:15:04;11.40;99.90
21918;DHT22;11123;49.882;8.662;2022-11-04T16:17:33;11.50;99.90